Terminal Aerodrome Forecast
Issued by NWS Medford, OR

Home | Current Version | Previous Version | Text Only | Print | Product List | Glossary On
Versions: 1 2 3 4 5 6 7 8 9 10 11 12 13 14 15
000
FTUS46 KMFR 261129
TAFMFR
TAF
KMFR 261129Z 2612/2712 02005KT P6SM FEW060 BKN090
     FM262100 34006KT P6SM BKN050 BKN250
     FM270600 VRB02KT P6SM FEW040 BKN250=

USA.gov is the U.S. government's official web portal to all federal, state and local government web resources and services.